Time;durP1;ratioP1;P1;durP2;ratioP2;P2;SDS_P1;SDS_P2;PMS_P1;PMS_P2;Temp;Humidity;BMP_temperature;BMP_pressure;BME280_temperature;BME280_humidity;BME280_pressure;Samples;Min_cycle;Max_cycle;Signal;HPM_P1;HPM_P2
2023/06/12 00:02:21;;;;;;;93.40;67.05;;;28.50;99.90;;;;;;5035373;28;20393;-69
2023/06/12 00:04:48;;;;;;;75.95;54.33;;;28.50;99.90;;;;;;5035495;28;20471;-70
2023/06/12 00:07:16;;;;;;;77.38;59.20;;;28.50;99.90;;;;;;5035174;28;20501;-70
2023/06/12 00:09:43;;;;;;;77.95;57.47;;;28.60;99.90;;;;;;5035194;28;20099;-67
2023/06/12 00:12:10;;;;;;;72.50;51.58;;;28.70;99.90;;;;;;5035372;28;20026;-72
2023/06/12 00:14:37;;;;;;;76.10;55.25;;;28.70;99.90;;;;;;5034275;28;20032;-69
2023/06/12 00:17:04;;;;;;;74.07;54.78;;;28.70;99.90;;;;;;5035267;28;20101;-68
2023/06/12 00:19:31;;;;;;;72.57;52.90;;;28.70;99.90;;;;;;5035283;28;20392;-72
2023/06/12 00:21:58;;;;;;;64.97;52.70;;;28.80;99.90;;;;;;5034801;28;20057;-68
2023/06/12 00:24:24;;;;;;;63.75;48.50;;;28.70;99.90;;;;;;5034990;28;20470;-70
2023/06/12 00:26:51;;;;;;;68.57;51.15;;;28.70;99.90;;;;;;5034900;28;20026;-70
2023/06/12 00:29:18;;;;;;;168.18;124.50;;;28.70;99.90;;;;;;5034615;28;20040;-70
2023/06/12 00:31:44;;;;;;;154.48;111.50;;;28.90;99.90;;;;;;5034198;28;20021;-68
2023/06/12 00:34:11;;;;;;;315.30;222.20;;;28.70;99.90;;;;;;5034747;28;20057;-67
2023/06/12 00:36:38;;;;;;;138.85;100.78;;;28.80;99.90;;;;;;5034718;28;20064;-70
2023/06/12 00:39:05;;;;;;;78.05;59.83;;;28.90;99.90;;;;;;5034752;28;20017;-70
2023/06/12 00:41:32;;;;;;;67.22;50.15;;;29.00;99.90;;;;;;5034859;28;20026;-71
2023/06/12 00:43:59;;;;;;;69.50;47.03;;;28.90;99.90;;;;;;5034654;28;20029;-73
2023/06/12 00:46:26;;;;;;;63.03;48.55;;;28.90;99.90;;;;;;5035002;28;20017;-71
2023/06/12 00:48:52;;;;;;;65.60;48.60;;;29.00;99.90;;;;;;5034750;28;20112;-73
2023/06/12 00:51:20;;;;;;;62.28;44.28;;;29.00;99.90;;;;;;5034562;28;20025;-70
2023/06/12 00:53:47;;;;;;;58.92;42.67;;;29.10;99.90;;;;;;5034459;28;20033;-70
2023/06/12 00:56:14;;;;;;;50.58;39.30;;;29.20;99.90;;;;;;5034474;28;20101;-70
2023/06/12 00:58:41;;;;;;;59.55;46.08;;;29.20;99.90;;;;;;5034432;28;20028;-71
2023/06/12 01:01:08;;;;;;;74.55;60.80;;;29.20;99.90;;;;;;5034683;28;20025;-75
2023/06/12 01:03:35;;;;;;;58.85;45.28;;;29.30;99.90;;;;;;5016515;28;20367;-75
2023/06/12 01:06:06;;;;;;;55.58;42.78;;;29.30;99.90;;;;;;5034190;28;20101;-73
2023/06/12 01:08:38;;;;;;;56.55;43.67;;;29.40;99.90;;;;;;5034471;28;20025;-72
2023/06/12 01:11:09;;;;;;;63.15;45.58;;;29.40;99.90;;;;;;5034214;28;20049;-71
2023/06/12 01:13:36;;;;;;;96.07;76.00;;;29.50;99.90;;;;;;5033906;28;20025;-72
2023/06/12 01:16:03;;;;;;;121.05;86.47;;;29.50;99.90;;;;;;5034261;28;20080;-70
2023/06/12 01:18:32;;;;;;;85.93;62.83;;;29.60;99.90;;;;;;5034092;28;20024;-69
2023/06/12 01:21:01;;;;;;;144.18;105.28;;;29.60;99.90;;;;;;5014158;28;20024;-71
2023/06/12 01:23:32;;;;;;;465.58;321.42;;;29.60;99.90;;;;;;5014176;28;20501;-69
2023/06/12 01:26:02;;;;;;;809.20;593.53;;;29.60;99.90;;;;;;5014141;28;20029;-68
2023/06/12 01:28:37;;;;;;;903.03;629.60;;;29.60;99.90;;;;;;5030351;28;20281;-68
2023/06/12 01:31:08;;;;;;;688.05;462.63;;;29.80;99.90;;;;;;5033230;28;20018;-68
2023/06/12 01:33:40;;;;;;;457.13;315.15;;;29.80;99.90;;;;;;5033301;28;20036;-68
2023/06/12 01:36:13;;;;;;;1238.95;741.33;;;29.80;99.90;;;;;;5033600;28;20105;-68
2023/06/12 01:38:41;;;;;;;1423.80;794.60;;;29.90;99.90;;;;;;5034112;28;20052;-69
2023/06/12 01:41:09;;;;;;;899.25;560.97;;;29.90;99.90;;;;;;5034377;28;20470;-68
2023/06/12 01:43:37;;;;;;;1152.78;693.92;;;30.00;99.90;;;;;;5034121;28;20125;-69
2023/06/12 01:46:05;;;;;;;1265.63;735.78;;;30.00;99.90;;;;;;5033956;28;20022;-69
2023/06/12 01:48:31;;;;;;;573.05;348.38;;;30.00;99.90;;;;;;5033976;28;20025;-66
2023/06/12 01:50:58;;;;;;;740.08;450.83;;;30.00;99.90;;;;;;5033421;28;20132;-67
2023/06/12 01:53:25;;;;;;;274.17;147.88;;;30.00;99.90;;;;;;5033788;28;20025;-69
2023/06/12 01:55:53;;;;;;;108.65;66.60;;;30.00;99.90;;;;;;5034160;28;20031;-69
2023/06/12 01:58:20;;;;;;;187.32;105.93;;;29.90;99.90;;;;;;5034113;28;20026;-69
2023/06/12 02:00:46;;;;;;;418.08;258.30;;;30.00;99.90;;;;;;5033786;28;20025;-69
2023/06/12 02:03:13;;;;;;;102.07;65.05;;;30.10;99.90;;;;;;5033959;28;20104;-68
2023/06/12 02:05:40;;;;;;;362.90;232.88;;;30.10;99.90;;;;;;5033890;28;20274;-68
2023/06/12 02:08:07;;;;;;;184.52;118.07;;;30.20;99.90;;;;;;5034337;28;20066;-69
2023/06/12 02:10:33;;;;;;;153.95;97.35;;;30.20;99.90;;;;;;5033908;28;20053;-68
2023/06/12 02:13:00;;;;;;;270.50;150.30;;;30.20;99.90;;;;;;5033939;28;20497;-68
2023/06/12 02:15:28;;;;;;;85.50;55.85;;;30.30;99.90;;;;;;5033771;28;20033;-68
2023/06/12 02:17:55;;;;;;;130.07;75.38;;;30.20;99.90;;;;;;5033743;28;20097;-68
2023/06/12 02:20:21;;;;;;;223.35;116.75;;;30.20;99.90;;;;;;5033344;28;20100;-68
2023/06/12 02:22:48;;;;;;;192.00;101.45;;;30.20;99.90;;;;;;5033340;28;20018;-66
2023/06/12 02:25:15;;;;;;;148.07;83.10;;;30.20;99.90;;;;;;5032951;28;20052;-67
2023/06/12 02:27:42;;;;;;;92.30;61.80;;;30.20;99.90;;;;;;5033249;28;20060;-70
2023/06/12 02:30:09;;;;;;;198.38;131.05;;;30.30;99.90;;;;;;5033028;28;20466;-69
2023/06/12 02:32:36;;;;;;;217.48;133.82;;;30.30;99.90;;;;;;5032935;28;20030;-68
2023/06/12 02:35:02;;;;;;;374.63;217.95;;;30.40;99.90;;;;;;5030941;28;20030;-66
2023/06/12 02:37:30;;;;;;;359.20;204.15;;;30.40;99.90;;;;;;5033026;28;20017;-66
2023/06/12 02:39:56;;;;;;;87.07;57.45;;;30.40;99.90;;;;;;5031805;28;20432;-66
2023/06/12 02:42:23;;;;;;;176.63;87.00;;;30.40;99.90;;;;;;5031931;28;20532;-67
2023/06/12 02:44:50;;;;;;;281.67;120.25;;;30.40;99.90;;;;;;5030706;28;20018;-66
2023/06/12 02:47:18;;;;;;;347.33;154.85;;;30.50;99.90;;;;;;5025661;28;20099;-70
2023/06/12 02:49:45;;;;;;;993.75;528.75;;;30.60;99.90;;;;;;5031121;28;20026;-68
2023/06/12 02:52:12;;;;;;;124.82;71.65;;;30.70;99.90;;;;;;5012137;28;20054;-67
2023/06/12 02:54:39;;;;;;;76.38;46.95;;;30.60;99.90;;;;;;5027028;28;20021;-67
2023/06/12 02:57:06;;;;;;;175.07;78.63;;;30.70;99.90;;;;;;5034972;28;20025;-66
2023/06/12 02:59:33;;;;;;;147.50;71.00;;;30.90;99.90;;;;;;5017923;28;20033;-67
2023/06/12 03:02:00;;;;;;;418.63;173.38;;;30.90;99.90;;;;;;5035309;28;20465;-67
2023/06/12 03:04:27;;;;;;;167.95;80.75;;;31.00;99.90;;;;;;5035507;28;20026;-65
2023/06/12 03:06:55;;;;;;;348.63;149.82;;;31.00;99.90;;;;;;5035355;28;20040;-66
2023/06/12 03:09:23;;;;;;;434.55;178.52;;;31.10;99.90;;;;;;5034991;28;20033;-70
2023/06/12 03:11:53;;;;;;;394.77;180.65;;;31.20;99.90;;;;;;5035163;28;20045;-70
2023/06/12 03:14:21;;;;;;;1999.90;999.90;;;31.20;99.90;;;;;;5035242;28;20029;-67
2023/06/12 03:16:49;;;;;;;1065.75;659.70;;;31.20;99.90;;;;;;5035026;28;20017;-67
2023/06/12 03:19:16;;;;;;;731.13;478.05;;;31.10;99.90;;;;;;5035330;28;20021;-66
2023/06/12 03:21:43;;;;;;;374.25;233.70;;;31.20;99.90;;;;;;5034899;28;20025;-67
2023/06/12 03:24:10;;;;;;;306.00;179.25;;;31.20;99.90;;;;;;5034829;28;20028;-67
2023/06/12 03:26:38;;;;;;;312.02;173.75;;;31.20;99.90;;;;;;5035087;28;20072;-67
2023/06/12 03:29:05;;;;;;;245.57;136.70;;;31.20;99.90;;;;;;5035034;28;20083;-67
2023/06/12 03:31:32;;;;;;;300.42;136.75;;;31.30;99.90;;;;;;5017000;28;20036;-67
2023/06/12 03:33:58;;;;;;;140.88;71.93;;;31.30;99.90;;;;;;5034328;28;20018;-68
2023/06/12 03:36:25;;;;;;;44.70;30.73;;;31.30;99.90;;;;;;5034747;28;20112;-68
2023/06/12 03:38:52;;;;;;;108.47;60.38;;;31.30;99.90;;;;;;5034435;28;20029;-69
2023/06/12 03:41:21;;;;;;;191.45;97.55;;;31.30;99.90;;;;;;5034744;28;20404;-68
2023/06/12 03:43:48;;;;;;;180.68;101.68;;;31.30;99.90;;;;;;5034661;28;20028;-67
2023/06/12 03:46:16;;;;;;;80.57;51.17;;;31.30;99.90;;;;;;5034502;28;20115;-68
2023/06/12 03:48:43;;;;;;;187.02;97.43;;;31.40;99.90;;;;;;5034415;28;20036;-65
2023/06/12 03:51:10;;;;;;;79.53;46.97;;;31.50;99.90;;;;;;5034628;28;20461;-66
2023/06/12 03:53:39;;;;;;;183.57;107.68;;;31.50;99.90;;;;;;5034034;28;20029;-66
2023/06/12 03:56:06;;;;;;;122.93;63.65;;;31.50;99.90;;;;;;5028153;28;20030;-67
2023/06/12 03:58:32;;;;;;;225.52;111.53;;;31.60;99.90;;;;;;5026984;28;20080;-65
2023/06/12 04:00:59;;;;;;;104.10;51.95;;;31.70;99.90;;;;;;5014367;28;20065;-66
2023/06/12 04:03:26;;;;;;;167.50;71.03;;;31.80;99.90;;;;;;5034225;28;20104;-66
2023/06/12 04:05:53;;;;;;;133.90;67.50;;;31.90;99.90;;;;;;5033556;28;20499;-67
2023/06/12 04:08:20;;;;;;;389.42;253.20;;;31.90;99.90;;;;;;5033836;28;20026;-67
2023/06/12 04:10:47;;;;;;;103.72;58.45;;;32.00;99.90;;;;;;5034183;28;20049;-67
2023/06/12 04:13:14;;;;;;;81.70;45.70;;;32.00;99.90;;;;;;5034689;28;20021;-67
2023/06/12 04:15:41;;;;;;;928.35;646.72;;;32.00;99.90;;;;;;5035538;28;20394;-67
2023/06/12 04:18:09;;;;;;;310.15;173.80;;;32.00;99.90;;;;;;5034328;28;20030;-67
2023/06/12 04:20:39;;;;;;;97.35;55.83;;;32.10;99.90;;;;;;5035032;28;20025;-67
2023/06/12 04:23:11;;;;;;;48.85;27.95;;;32.10;99.90;;;;;;5035004;28;20075;-67
2023/06/12 04:25:38;;;;;;;56.88;31.20;;;32.00;99.90;;;;;;5035306;28;20060;-68
2023/06/12 04:28:07;;;;;;;48.38;26.58;;;32.10;99.90;;;;;;5034853;28;20447;-63
2023/06/12 04:30:35;;;;;;;43.63;27.08;;;32.20;99.90;;;;;;5032368;28;20026;-67
2023/06/12 04:33:03;;;;;;;46.58;32.13;;;32.20;99.90;;;;;;5028865;28;20029;-67
2023/06/12 04:35:33;;;;;;;61.00;34.60;;;32.20;99.90;;;;;;5023695;28;20032;-66
2023/06/12 04:38:00;;;;;;;42.78;29.10;;;32.20;99.90;;;;;;5025560;28;20115;-67
2023/06/12 04:40:27;;;;;;;41.22;23.60;;;32.30;99.90;;;;;;5021049;28;20399;-67
2023/06/12 04:42:56;;;;;;;46.03;29.35;;;32.40;99.90;;;;;;5017521;28;20021;-67
2023/06/12 04:45:23;;;;;;;53.05;35.58;;;32.40;99.90;;;;;;5024326;28;20144;-69
2023/06/12 04:47:50;;;;;;;50.63;32.03;;;32.50;99.90;;;;;;5022766;28;20096;-69
2023/06/12 04:50:18;;;;;;;42.17;25.40;;;32.60;99.90;;;;;;5023891;28;20565;-68
2023/06/12 04:52:47;;;;;;;32.00;21.42;;;32.70;99.90;;;;;;5024891;28;20034;-68
2023/06/12 04:55:16;;;;;;;49.40;35.13;;;32.80;99.90;;;;;;5023166;28;20112;-69
2023/06/12 04:57:43;;;;;;;40.28;29.67;;;32.80;99.90;;;;;;5023116;28;20108;-70
2023/06/12 05:00:15;;;;;;;44.58;25.27;;;32.90;99.90;;;;;;5024744;28;20530;-68
2023/06/12 05:02:43;;;;;;;39.58;28.60;;;32.90;99.90;;;;;;5024115;28;20073;-68
2023/06/12 05:05:10;;;;;;;44.22;29.08;;;32.90;99.90;;;;;;5028655;28;20576;-70
2023/06/12 05:07:36;;;;;;;27.60;19.48;;;32.90;99.90;;;;;;5023287;28;20021;-68
2023/06/12 05:10:04;;;;;;;23.45;17.65;;;32.90;99.90;;;;;;5029062;28;20524;-73
2023/06/12 05:12:31;;;;;;;31.52;24.10;;;33.00;99.90;;;;;;5026562;28;20036;-73
2023/06/12 05:15:00;;;;;;;58.15;44.58;;;33.00;99.90;;;;;;5027386;28;20029;-68
2023/06/12 05:17:27;;;;;;;32.63;21.10;;;33.10;99.90;;;;;;5023971;28;20371;-70
2023/06/12 05:19:54;;;;;;;32.33;17.35;;;33.00;99.90;;;;;;5023259;28;20018;-68
2023/06/12 05:22:21;;;;;;;24.63;18.05;;;32.90;99.90;;;;;;5021634;28;20076;-68
2023/06/12 05:24:47;;;;;;;27.88;17.63;;;33.10;99.90;;;;;;5023937;28;20204;-68
2023/06/12 05:27:15;;;;;;;31.70;22.52;;;33.10;99.90;;;;;;5023112;28;20475;-68
2023/06/12 05:29:44;;;;;;;29.10;20.92;;;33.00;99.90;;;;;;5021825;28;20425;-70
2023/06/12 05:32:11;;;;;;;25.15;17.95;;;33.00;99.90;;;;;;5023062;28;20053;-70
2023/06/12 05:34:38;;;;;;;27.75;20.90;;;33.00;99.90;;;;;;5026217;28;20045;-69
2023/06/12 05:37:04;;;;;;;30.48;20.40;;;33.00;99.90;;;;;;5024577;28;20053;-70
2023/06/12 05:39:31;;;;;;;240.75;116.13;;;32.90;99.90;;;;;;5022860;28;20028;-70
2023/06/12 05:41:58;;;;;;;71.95;38.25;;;32.90;99.90;;;;;;5024279;28;20029;-70
2023/06/12 05:44:24;;;;;;;28.00;16.83;;;32.90;99.90;;;;;;5025236;28;20151;-72
2023/06/12 05:46:52;;;;;;;19.35;15.50;;;32.90;99.90;;;;;;5022107;28;20018;-71
2023/06/12 05:49:19;;;;;;;25.80;17.02;;;32.90;99.90;;;;;;5021957;28;20061;-70
2023/06/12 05:51:46;;;;;;;28.60;18.25;;;32.90;99.90;;;;;;5021794;28;20103;-70
2023/06/12 05:54:12;;;;;;;25.98;17.77;;;33.00;99.90;;;;;;5022511;28;20112;-71
2023/06/12 05:56:39;;;;;;;80.13;36.47;;;33.00;99.90;;;;;;5025501;28;20021;-73
2023/06/12 05:59:06;;;;;;;115.15;59.03;;;33.00;99.90;;;;;;5004054;28;20072;-69
2023/06/12 06:01:34;;;;;;;159.23;94.78;;;33.00;99.90;;;;;;5022447;28;20498;-70
2023/06/12 06:04:01;;;;;;;141.13;90.18;;;33.10;99.90;;;;;;5015236;28;20068;-69
2023/06/12 06:06:30;;;;;;;85.13;47.75;;;33.10;99.90;;;;;;5016281;28;20029;-70
2023/06/12 06:08:56;;;;;;;83.45;27.60;;;33.00;99.90;;;;;;5015363;28;20399;-69
2023/06/12 06:11:23;;;;;;;49.05;18.17;;;32.90;99.90;;;;;;5020734;28;20129;-70
2023/06/12 06:13:50;;;;;;;30.35;15.60;;;32.30;99.90;;;;;;5027587;28;20021;-68
2023/06/12 06:16:16;;;;;;;17.08;9.10;;;31.00;99.90;;;;;;5021707;28;20011;-69
2023/06/12 06:18:43;;;;;;;15.40;9.10;;;29.90;99.90;;;;;;5022945;28;20095;-68
2023/06/12 06:21:11;;;;;;;18.10;9.32;;;29.90;99.90;;;;;;5021799;28;20555;-66
2023/06/12 06:23:37;;;;;;;13.38;8.98;;;30.10;99.90;;;;;;5021903;28;20028;-67
2023/06/12 06:26:05;;;;;;;17.75;9.27;;;30.30;99.90;;;;;;5023061;28;20009;-67
2023/06/12 06:28:32;;;;;;;14.35;9.60;;;30.50;99.90;;;;;;5023489;28;20018;-67
2023/06/12 06:30:59;;;;;;;19.30;11.77;;;30.60;99.90;;;;;;5029042;28;20061;-68
2023/06/12 06:33:26;;;;;;;27.33;14.20;;;30.70;99.90;;;;;;5024530;28;20438;-69
2023/06/12 06:35:54;;;;;;;22.25;14.30;;;30.80;99.90;;;;;;5024923;28;20521;-67
2023/06/12 06:38:22;;;;;;;18.92;12.20;;;30.80;99.90;;;;;;5024923;28;20510;-69
2023/06/12 06:40:49;;;;;;;15.18;9.95;;;30.90;99.90;;;;;;5025610;28;20033;-69
2023/06/12 06:43:16;;;;;;;15.43;10.20;;;30.90;99.90;;;;;;5027848;28;20025;-70
2023/06/12 06:45:43;;;;;;;17.60;9.98;;;31.00;99.90;;;;;;5030120;28;20099;-69
2023/06/12 06:48:12;;;;;;;19.65;11.52;;;31.10;99.90;;;;;;5025286;28;20125;-67
2023/06/12 06:50:39;;;;;;;18.08;11.88;;;31.10;99.90;;;;;;5025415;28;20101;-69
2023/06/12 06:53:06;;;;;;;18.90;11.70;;;31.10;99.90;;;;;;5031117;28;20025;-65
2023/06/12 06:55:33;;;;;;;20.55;13.10;;;31.10;99.90;;;;;;5024007;28;20060;-65
2023/06/12 06:58:00;;;;;;;16.38;11.35;;;31.10;99.90;;;;;;5037116;28;20021;-73
2023/06/12 07:00:27;;;;;;;17.02;11.23;;;31.20;99.90;;;;;;5025024;28;20052;-70
2023/06/12 07:02:54;;;;;;;15.73;12.60;;;31.30;99.90;;;;;;5029486;28;20022;-70
2023/06/12 07:05:21;;;;;;;19.33;13.88;;;31.30;99.90;;;;;;5016784;28;20438;-70
2023/06/12 07:07:50;;;;;;;18.10;12.65;;;31.40;99.90;;;;;;5016798;28;20030;-67
2023/06/12 07:10:17;;;;;;;17.60;11.73;;;31.40;99.90;;;;;;5026682;28;20041;-68
2023/06/12 07:12:43;;;;;;;15.60;12.20;;;31.40;99.90;;;;;;5025882;28;20037;-71
2023/06/12 07:15:10;;;;;;;21.13;14.90;;;31.60;99.90;;;;;;5033387;28;20523;-70
2023/06/12 07:17:37;;;;;;;16.63;10.63;;;31.40;99.90;;;;;;5036126;28;20079;-71
2023/06/12 07:20:06;;;;;;;14.40;9.27;;;31.20;99.90;;;;;;5036408;28;20018;-69
2023/06/12 07:22:33;;;;;;;10.82;7.57;;;31.00;99.90;;;;;;5036337;28;20144;-69
2023/06/12 07:25:00;;;;;;;8.70;6.55;;;30.80;99.90;;;;;;5036244;28;20386;-71
2023/06/12 07:27:26;;;;;;;15.38;6.70;;;30.50;99.90;;;;;;5036289;28;20428;-71
2023/06/12 07:29:55;;;;;;;7.97;5.75;;;30.20;99.90;;;;;;5036189;28;20104;-70
2023/06/12 07:32:22;;;;;;;9.27;6.05;;;29.80;99.90;;;;;;5035988;28;20025;-71
2023/06/12 07:34:48;;;;;;;7.95;6.50;;;29.60;99.90;;;;;;5036038;28;20047;-71
2023/06/12 07:37:15;;;;;;;10.45;6.80;;;29.60;99.90;;;;;;5036055;28;20467;-71
2023/06/12 07:39:41;;;;;;;10.55;6.53;;;29.40;99.90;;;;;;5035833;28;20014;-72
2023/06/12 07:42:08;;;;;;;9.02;6.75;;;29.40;99.90;;;;;;5035766;28;20100;-70
2023/06/12 07:44:37;;;;;;;9.75;7.88;;;29.40;99.90;;;;;;5035937;28;20025;-70
2023/06/12 07:47:04;;;;;;;11.38;8.98;;;29.50;99.90;;;;;;5035289;28;20052;-74
2023/06/12 07:49:30;;;;;;;14.05;10.98;;;29.50;99.90;;;;;;5027957;28;20070;-68
2023/06/12 07:51:57;;;;;;;15.60;11.35;;;29.50;99.90;;;;;;5023404;28;20022;-68
2023/06/12 07:54:24;;;;;;;14.90;10.63;;;29.70;99.90;;;;;;5020926;28;20029;-67
2023/06/12 07:56:51;;;;;;;22.10;13.23;;;29.80;99.90;;;;;;5032439;28;20033;-69
2023/06/12 07:59:18;;;;;;;27.40;16.20;;;29.80;99.90;;;;;;5036063;28;20021;-68
2023/06/12 08:01:45;;;;;;;33.05;18.30;;;29.90;99.90;;;;;;5035639;28;20048;-72
2023/06/12 08:04:12;;;;;;;23.13;16.58;;;29.90;99.90;;;;;;5035812;28;20330;-70
2023/06/12 08:06:40;;;;;;;19.30;13.32;;;30.00;99.90;;;;;;5035796;28;20049;-69
2023/06/12 08:09:09;;;;;;;20.73;13.35;;;29.90;99.90;;;;;;5035604;28;20029;-71
2023/06/12 08:11:36;;;;;;;20.23;11.32;;;29.80;99.90;;;;;;5035406;28;20049;-68
2023/06/12 08:14:03;;;;;;;15.57;12.27;;;29.80;99.90;;;;;;5035161;28;20515;-68
2023/06/12 08:16:31;;;;;;;15.57;12.65;;;29.70;99.90;;;;;;5035323;28;20026;-67
2023/06/12 08:18:58;;;;;;;20.98;12.98;;;29.70;99.90;;;;;;5035516;28;20017;-69
2023/06/12 08:21:26;;;;;;;25.38;17.65;;;29.60;99.90;;;;;;5035424;28;20052;-70
2023/06/12 08:23:53;;;;;;;34.55;20.80;;;29.50;99.90;;;;;;5035150;28;20034;-67
2023/06/12 08:26:19;;;;;;;34.35;21.67;;;29.50;99.90;;;;;;5035356;28;20029;-68
2023/06/12 08:28:49;;;;;;;35.60;19.55;;;29.30;99.90;;;;;;5027434;28;20542;-66
2023/06/12 08:31:16;;;;;;;31.52;17.50;;;29.20;99.90;;;;;;5021612;28;20034;-68
2023/06/12 08:33:43;;;;;;;28.33;16.30;;;29.00;99.90;;;;;;5034947;28;20025;-67
2023/06/12 08:36:12;;;;;;;31.25;17.08;;;28.90;99.90;;;;;;5034480;28;20112;-68
2023/06/12 08:38:38;;;;;;;21.77;14.18;;;28.80;99.90;;;;;;5034800;28;20032;-67
2023/06/12 08:41:06;;;;;;;23.38;13.73;;;28.80;99.90;;;;;;5035059;28;20014;-68
2023/06/12 08:43:34;;;;;;;23.83;14.25;;;28.80;99.90;;;;;;5034937;28;20101;-66
2023/06/12 08:46:04;;;;;;;21.15;15.15;;;28.70;99.90;;;;;;5034935;28;20028;-67
2023/06/12 08:48:32;;;;;;;23.50;15.20;;;28.80;99.90;;;;;;5034108;28;20029;-68
2023/06/12 08:51:02;;;;;;;24.67;15.68;;;28.80;99.90;;;;;;5034715;28;20018;-67
2023/06/12 08:53:30;;;;;;;27.00;15.85;;;28.90;99.90;;;;;;5033998;28;20017;-67
2023/06/12 08:55:57;;;;;;;27.98;16.50;;;28.90;99.90;;;;;;5034673;28;20026;-69
2023/06/12 08:58:24;;;;;;;25.08;16.50;;;28.90;99.90;;;;;;5034562;28;20072;-65
2023/06/12 09:00:50;;;;;;;24.30;17.63;;;29.00;99.90;;;;;;5028190;28;20020;-67
2023/06/12 09:03:18;;;;;;;33.42;17.98;;;29.20;99.90;;;;;;5034419;28;20057;-70
2023/06/12 09:05:46;;;;;;;28.45;18.02;;;29.30;99.90;;;;;;5034486;28;20025;-68
2023/06/12 09:08:13;;;;;;;30.67;18.95;;;29.30;99.90;;;;;;5033381;28;20040;-68
2023/06/12 09:10:40;;;;;;;28.38;18.42;;;29.30;99.90;;;;;;5023576;28;20048;-69
2023/06/12 09:13:10;;;;;;;27.23;17.50;;;29.40;99.90;;;;;;5022942;28;20018;-67
2023/06/12 09:15:39;;;;;;;28.15;18.23;;;29.50;99.90;;;;;;5014404;28;20026;-71
2023/06/12 09:18:10;;;;;;;30.23;19.67;;;29.60;99.90;;;;;;5014850;28;20101;-69
2023/06/12 09:20:38;;;;;;;31.92;20.05;;;29.50;99.90;;;;;;5014719;28;20076;-70
2023/06/12 09:23:05;;;;;;;31.90;19.05;;;29.50;99.90;;;;;;5024766;28;20041;-69
2023/06/12 09:28:09;;;;;;;41.28;20.23;;;29.60;99.90;;;;;;5023002;28;20046;-67
2023/06/12 09:30:39;;;;;;;32.08;18.00;;;29.60;99.90;;;;;;5023758;28;20017;-68
2023/06/12 09:33:07;;;;;;;28.95;19.88;;;29.60;99.90;;;;;;5023195;28;20029;-68
2023/06/12 09:35:37;;;;;;;34.55;21.20;;;29.70;99.90;;;;;;5028152;28;20025;-68
2023/06/12 09:38:06;;;;;;;37.67;22.13;;;29.60;99.90;;;;;;5024484;28;20105;-69
2023/06/12 09:40:37;;;;;;;34.08;22.80;;;29.60;99.90;;;;;;5022740;28;20018;-69
2023/06/12 09:43:05;;;;;;;44.33;25.57;;;29.40;99.90;;;;;;5022377;28;20048;-68
2023/06/12 09:45:31;;;;;;;42.10;24.33;;;29.30;99.90;;;;;;5022792;28;20251;-68
2023/06/12 09:47:58;;;;;;;47.40;31.45;;;29.40;99.90;;;;;;5023286;28;20101;-69
2023/06/12 09:50:25;;;;;;;46.60;27.52;;;29.40;99.90;;;;;;5027548;28;20448;-69
2023/06/12 09:52:57;;;;;;;42.65;28.52;;;29.50;99.90;;;;;;5033543;28;20025;-69
2023/06/12 09:55:26;;;;;;;;;;;29.50;99.90;;;;;;5025771;28;20033;-71
2023/06/12 09:57:53;;;;;;;52.17;31.88;;;29.60;99.90;;;;;;5022835;28;19983;-68
2023/06/12 10:00:21;;;;;;;98.30;82.22;;;29.60;99.90;;;;;;5027857;28;20027;-67
2023/06/12 10:03:09;;;;;;;70.55;55.10;;;29.50;99.90;;;;;;5021603;28;20387;-68
2023/06/12 10:05:40;;;;;;;58.55;38.95;;;29.40;99.90;;;;;;5020942;28;20117;-67
2023/06/12 10:08:08;;;;;;;47.50;33.70;;;29.50;99.90;;;;;;5021353;28;20091;-67
2023/06/12 10:10:35;;;;;;;45.50;30.25;;;29.50;99.90;;;;;;5023409;28;20081;-68
2023/06/12 10:13:03;;;;;;;50.30;30.13;;;29.50;99.90;;;;;;5022719;28;20028;-68
2023/06/12 10:15:33;;;;;;;49.20;31.20;;;29.60;99.90;;;;;;5021270;28;20014;-67
2023/06/12 10:18:01;;;;;;;52.22;31.90;;;29.60;99.90;;;;;;5022801;28;20391;-69
2023/06/12 10:20:30;;;;;;;43.92;32.30;;;29.60;99.90;;;;;;5023407;28;20041;-67
2023/06/12 10:22:58;;;;;;;56.88;34.53;;;29.60;99.90;;;;;;5021686;28;20033;-68
2023/06/12 10:25:25;;;;;;;50.90;34.15;;;29.50;99.90;;;;;;5022050;28;20029;-69
2023/06/12 10:27:53;;;;;;;47.28;31.23;;;29.60;99.90;;;;;;5023133;28;20025;-69
2023/06/12 10:30:20;;;;;;;54.58;33.75;;;29.50;99.90;;;;;;5026857;28;20100;-70
2023/06/12 10:32:47;;;;;;;55.60;35.17;;;29.50;99.90;;;;;;5025149;28;20030;-70
2023/06/12 10:35:28;;;;;;;46.30;33.40;;;29.50;99.90;;;;;;5022944;28;20029;-69
2023/06/12 10:37:55;;;;;;;63.42;49.35;;;29.50;99.90;;;;;;5023894;28;20033;-68
2023/06/12 10:40:23;;;;;;;67.38;48.63;;;29.60;99.90;;;;;;5022207;28;20029;-68
2023/06/12 10:43:04;;;;;;;61.22;42.80;;;29.40;99.90;;;;;;5023142;28;20024;-68
2023/06/12 10:45:36;;;;;;;55.42;41.70;;;29.40;99.90;;;;;;5023167;28;20433;-68
2023/06/12 10:48:06;;;;;;;55.58;38.83;;;29.50;99.90;;;;;;5021967;28;20076;-70
2023/06/12 10:50:37;;;;;;;53.75;38.78;;;29.50;99.90;;;;;;5020976;28;20479;-68
2023/06/12 10:53:05;;;;;;;59.05;40.30;;;29.50;99.90;;;;;;5026450;28;20033;-67
2023/06/12 10:55:34;;;;;;;56.50;38.72;;;29.50;99.90;;;;;;5022930;28;20089;-69
2023/06/12 10:58:03;;;;;;;60.45;39.15;;;29.50;99.90;;;;;;5022395;28;20079;-66
2023/06/12 11:00:36;;;;;;;61.45;40.50;;;29.50;99.90;;;;;;5023117;28;20076;-68
2023/06/12 11:03:07;;;;;;;83.60;57.95;;;29.50;99.90;;;;;;5021892;28;20022;-68
2023/06/12 11:05:34;;;;;;;78.43;46.60;;;29.50;99.90;;;;;;5024856;28;20026;-68
2023/06/12 11:08:05;;;;;;;72.10;52.40;;;29.40;99.90;;;;;;5023591;28;20391;-69
2023/06/12 11:10:33;;;;;;;71.10;48.55;;;29.40;99.90;;;;;;5020503;28;20136;-68
2023/06/12 11:13:01;;;;;;;68.30;50.08;;;29.40;99.90;;;;;;5022499;28;20033;-67
2023/06/12 11:15:27;;;;;;;75.82;52.80;;;29.30;99.90;;;;;;5022806;28;20072;-67
2023/06/12 11:17:54;;;;;;;105.68;68.95;;;29.30;99.90;;;;;;5024863;28;20104;-69
2023/06/12 11:20:22;;;;;;;226.73;143.23;;;29.30;99.90;;;;;;5025932;28;20010;-70
2023/06/12 11:22:58;;;;;;;174.95;118.35;;;29.30;99.90;;;;;;5025779;28;20029;-71
2023/06/12 11:25:25;;;;;;;156.27;99.38;;;29.20;99.90;;;;;;5026155;28;20029;-70
2023/06/12 11:27:54;;;;;;;99.03;78.93;;;29.10;99.90;;;;;;5024719;28;20027;-70
2023/06/12 11:30:20;;;;;;;109.43;71.45;;;29.10;99.90;;;;;;5025822;28;20526;-73
2023/06/12 11:32:47;;;;;;;99.55;69.82;;;29.00;99.90;;;;;;5025107;28;20022;-73
2023/06/12 11:35:14;;;;;;;100.32;67.30;;;29.00;99.90;;;;;;5030860;28;20025;-73
2023/06/12 11:37:41;;;;;;;91.32;60.35;;;29.00;99.90;;;;;;5009369;28;20330;-72
2023/06/12 11:40:12;;;;;;;100.30;59.70;;;29.10;99.90;;;;;;5025304;28;20379;-74
2023/06/12 11:42:44;;;;;;;80.85;54.90;;;29.10;99.90;;;;;;5025941;28;20018;-73
2023/06/12 11:45:14;;;;;;;78.68;51.30;;;29.10;99.90;;;;;;5025889;28;20180;-73
2023/06/12 11:47:45;;;;;;;88.00;56.35;;;29.10;99.90;;;;;;5024442;28;20053;-73
2023/06/12 11:50:15;;;;;;;97.95;70.60;;;29.20;99.90;;;;;;5026322;28;20061;-72
2023/06/12 11:52:43;;;;;;;108.15;80.80;;;29.20;99.90;;;;;;5018466;28;20022;-71
2023/06/12 11:55:16;;;;;;;143.13;96.85;;;29.20;99.90;;;;;;5002844;28;20479;-71
2023/06/12 11:57:48;;;;;;;96.22;72.78;;;29.20;99.90;;;;;;5020795;28;20072;-71
2023/06/12 12:00:17;;;;;;;;;;;29.20;99.90;;;;;;5024764;28;20479;-71
2023/06/12 12:02:46;;;;;;;88.90;66.68;;;29.20;99.90;;;;;;5021970;28;20377;-71
2023/06/12 12:05:16;;;;;;;97.20;64.40;;;29.20;99.90;;;;;;5005238;28;20751;-70
2023/06/12 12:07:45;;;;;;;88.15;61.97;;;29.10;99.90;;;;;;5025524;28;20037;-71
2023/06/12 12:10:13;;;;;;;149.68;103.20;;;29.10;99.90;;;;;;5026875;28;20061;-69
2023/06/12 12:12:43;;;;;;;94.60;64.75;;;29.20;99.90;;;;;;5020451;28;20030;-71
2023/06/12 12:15:12;;;;;;;71.07;51.35;;;29.20;99.90;;;;;;5020969;28;20060;-73
2023/06/12 12:17:40;;;;;;;81.03;61.70;;;29.20;99.90;;;;;;5024734;28;20036;-72
2023/06/12 12:20:11;;;;;;;73.40;55.83;;;29.30;99.90;;;;;;5020829;28;20018;-71
2023/06/12 12:22:39;;;;;;;90.65;69.10;;;29.20;99.90;;;;;;5018921;28;20165;-72
2023/06/12 12:25:07;;;;;;;68.00;49.05;;;29.20;99.90;;;;;;5018878;28;20036;-73
2023/06/12 12:27:34;;;;;;;64.13;44.85;;;29.20;99.90;;;;;;5023343;28;20127;-73
2023/06/12 12:30:04;;;;;;;73.57;56.72;;;29.20;99.90;;;;;;5028696;28;20095;-72